createdAt,value
2023-01-17T00:01:27.535Z,81.71
2023-01-17T00:06:52.854Z,81.93
2023-01-17T00:12:03.787Z,82.08
2023-01-17T00:17:11.511Z,82.21
2023-01-17T00:22:42.323Z,82.29
2023-01-17T00:27:51.033Z,82.34
2023-01-17T00:32:58.680Z,82.54
2023-01-17T00:38:08.439Z,82.76
2023-01-17T00:43:35.164Z,82.89
2023-01-17T00:49:01.249Z,83.02
2023-01-17T00:54:29.743Z,83.66
2023-01-17T00:59:59.974Z,83.93
2023-01-17T01:05:25.801Z,84.05
2023-01-17T01:10:51.478Z,83.88
2023-01-17T01:16:18.767Z,83.84
2023-01-17T01:21:43.470Z,84.25
2023-01-17T01:27:08.361Z,84.91
2023-01-17T01:32:32.835Z,84.71
2023-01-17T01:37:39.910Z,84.81
2023-01-17T01:42:53.612Z,85.08
2023-01-17T01:48:03.523Z,84.91
2023-01-17T01:53:11.570Z,85.07
2023-01-17T01:58:28.479Z,85.10
2023-01-17T02:03:37.457Z,85.38
2023-01-17T02:08:44.976Z,85.03
2023-01-17T02:13:51.922Z,84.99
2023-01-17T02:19:13.786Z,84.96
2023-01-17T02:24:48.505Z,84.87
2023-01-17T02:30:33.016Z,84.87
2023-01-17T02:35:50.194Z,84.65
2023-01-17T02:41:02.615Z,84.38
2023-01-17T02:46:09.913Z,83.92
2023-01-17T02:51:44.375Z,83.53
2023-01-17T02:57:04.702Z,83.30
2023-01-17T03:02:31.957Z,83.15
2023-01-17T03:07:41.829Z,82.86
2023-01-17T03:12:48.919Z,82.76
2023-01-17T03:17:58.159Z,82.48
2023-01-17T03:23:05.892Z,82.45
2023-01-17T03:28:12.967Z,82.63
2023-01-17T03:33:20.858Z,82.48
2023-01-17T03:38:29.527Z,82.43
2023-01-17T03:43:37.909Z,82.09
2023-01-17T03:48:47.846Z,81.78
2023-01-17T03:53:55.681Z,81.65
2023-01-17T03:59:03.269Z,81.42
2023-01-17T04:04:10.442Z,81.54
2023-01-17T04:09:17.608Z,81.43
2023-01-17T04:14:24.702Z,81.31
2023-01-17T04:19:33.081Z,81.60
2023-01-17T04:24:40.707Z,81.79
2023-01-17T04:29:47.773Z,81.89
2023-01-17T04:34:54.778Z,81.55
2023-01-17T04:40:01.864Z,81.46
2023-01-17T04:45:10.643Z,81.49
2023-01-17T04:50:18.299Z,81.45
2023-01-17T04:55:25.368Z,81.45
2023-01-17T05:00:32.455Z,81.34
2023-01-17T05:05:39.407Z,81.50
2023-01-17T05:10:48.292Z,81.77
2023-01-17T05:15:55.568Z,82.03
2023-01-17T05:21:05.492Z,81.93
2023-01-17T05:26:13.086Z,82.12
2023-01-17T05:31:20.493Z,82.00
2023-01-17T05:36:28.190Z,81.91
2023-01-17T05:41:35.220Z,81.69
2023-01-17T05:46:42.489Z,81.71
2023-01-17T05:51:49.593Z,81.56
2023-01-17T05:56:56.511Z,81.41
2023-01-17T06:02:03.725Z,81.24
2023-01-17T06:07:10.603Z,80.93
2023-01-17T06:12:17.740Z,80.68
2023-01-17T06:17:24.896Z,80.29
2023-01-17T06:22:32.280Z,79.88
2023-01-17T06:27:39.225Z,79.95
2023-01-17T06:32:46.207Z,79.89
2023-01-17T06:37:55.605Z,79.78
2023-01-17T06:43:04.838Z,79.67
2023-01-17T06:48:12.368Z,79.87
2023-01-17T06:53:19.750Z,79.89
2023-01-17T06:58:27.321Z,79.82
2023-01-17T07:03:34.264Z,79.87
2023-01-17T07:08:41.401Z,79.86
2023-01-17T07:13:48.436Z,79.74
2023-01-17T07:18:58.200Z,79.71
2023-01-17T07:24:05.631Z,79.57
2023-01-17T07:29:12.603Z,79.44
2023-01-17T07:34:19.981Z,79.36
2023-01-17T07:39:27.007Z,79.27
2023-01-17T07:44:34.080Z,79.40
2023-01-17T07:49:41.196Z,79.28
2023-01-17T07:54:48.170Z,79.13
2023-01-17T07:59:55.402Z,79.15
2023-01-17T08:05:02.546Z,79.03
2023-01-17T08:10:13.235Z,78.76
2023-01-17T08:15:20.711Z,78.73
2023-01-17T08:20:28.410Z,78.82
2023-01-17T08:25:35.792Z,78.63
2023-01-17T08:30:42.878Z,78.59
2023-01-17T08:35:56.560Z,78.75
2023-01-17T08:41:04.392Z,78.75
2023-01-17T08:46:11.507Z,78.61
2023-01-17T08:51:18.552Z,78.56
2023-01-17T08:56:27.129Z,78.31
2023-01-17T09:01:42.122Z,77.81
2023-01-17T09:06:49.328Z,77.43
2023-01-17T09:11:57.145Z,77.03
2023-01-17T09:17:05.803Z,76.83
2023-01-17T09:22:13.034Z,76.09
2023-01-17T09:27:20.883Z,75.03
2023-01-17T09:32:27.904Z,74.79
2023-01-17T09:37:34.812Z,74.85
2023-01-17T09:42:43.264Z,74.09
2023-01-17T09:47:52.569Z,73.83
2023-01-17T09:53:02.788Z,72.68
2023-01-17T09:58:14.222Z,72.38
2023-01-17T10:03:42.883Z,71.08
2023-01-17T10:09:20.055Z,69.67
2023-01-17T10:14:45.455Z,69.07
2023-01-17T10:20:09.846Z,66.81
2023-01-17T10:25:30.261Z,65.33
2023-01-17T10:30:46.285Z,64.48
2023-01-17T10:35:59.500Z,63.81
2023-01-17T10:41:15.825Z,62.77
2023-01-17T10:46:28.766Z,62.73
2023-01-17T10:52:01.340Z,62.06
2023-01-17T10:57:16.058Z,60.49
2023-01-17T11:02:29.993Z,59.28
2023-01-17T11:07:39.976Z,58.89
2023-01-17T11:12:48.620Z,60.12
2023-01-17T11:18:05.473Z,60.60
2023-01-17T11:23:17.179Z,60.53
2023-01-17T11:28:30.516Z,59.84
2023-01-17T11:33:47.983Z,59.92
2023-01-17T11:39:04.009Z,61.60
2023-01-17T11:44:27.117Z,62.62
2023-01-17T11:49:34.218Z,62.20
2023-01-17T11:54:45.750Z,62.35
2023-01-17T11:59:54.724Z,62.69
2023-01-17T12:05:18.691Z,62.54
2023-01-17T12:10:32.466Z,62.28
2023-01-17T12:15:55.068Z,61.31
2023-01-17T12:21:15.697Z,59.26
2023-01-17T12:26:36.064Z,57.97
2023-01-17T12:31:56.113Z,58.11
2023-01-17T12:37:09.668Z,58.56
2023-01-17T12:42:22.539Z,55.50
2023-01-17T12:47:30.335Z,56.40
2023-01-17T12:52:50.077Z,55.77
2023-01-17T12:58:01.362Z,54.47
2023-01-17T13:03:17.669Z,53.49
2023-01-17T13:08:30.266Z,54.36
2023-01-17T13:13:39.349Z,54.31
2023-01-17T13:18:49.112Z,54.35
2023-01-17T13:24:24.115Z,53.32
2023-01-17T13:29:42.480Z,53.99
2023-01-17T13:35:07.477Z,53.44
2023-01-17T13:40:37.208Z,53.54
2023-01-17T13:45:52.515Z,54.23
2023-01-17T13:51:00.804Z,54.32
2023-01-17T13:56:14.586Z,53.04
2023-01-17T14:01:53.147Z,53.23
2023-01-17T14:07:17.472Z,54.23
2023-01-17T14:12:32.285Z,54.49
2023-01-17T14:17:55.997Z,55.29
2023-01-17T14:23:06.325Z,55.13
2023-01-17T14:28:30.417Z,54.63
2023-01-17T14:33:40.933Z,54.56
2023-01-17T14:38:47.928Z,53.87
2023-01-17T14:43:55.597Z,55.00
2023-01-17T14:49:08.304Z,53.04
2023-01-17T14:54:23.246Z,52.96
2023-01-17T14:59:30.293Z,53.65
2023-01-17T15:04:39.759Z,54.64
2023-01-17T15:09:47.368Z,54.73
2023-01-17T15:14:58.562Z,55.55
2023-01-17T15:20:09.894Z,55.74
2023-01-17T15:25:19.235Z,56.13
2023-01-17T15:30:27.238Z,56.61
2023-01-17T15:35:34.341Z,56.89
2023-01-17T15:40:46.353Z,57.02
2023-01-17T15:45:59.003Z,57.48
2023-01-17T15:51:14.483Z,57.58
2023-01-17T15:56:32.967Z,57.78
2023-01-17T16:01:41.704Z,57.78
2023-01-17T16:06:54.942Z,58.03
2023-01-17T16:12:06.123Z,58.34
2023-01-17T16:17:20.975Z,58.69
2023-01-17T16:22:36.562Z,58.76
2023-01-17T16:27:49.422Z,58.93
2023-01-17T16:33:15.031Z,59.40
2023-01-17T16:38:29.647Z,59.79
2023-01-17T16:43:48.401Z,60.06
2023-01-17T16:49:03.402Z,60.25
2023-01-17T16:54:14.455Z,60.25
2023-01-17T16:59:26.083Z,60.34
2023-01-17T17:04:35.567Z,60.75
2023-01-17T17:09:43.886Z,61.30
2023-01-17T17:14:51.813Z,62.51
2023-01-17T17:19:59.168Z,62.30
2023-01-17T17:25:08.635Z,62.55
2023-01-17T17:30:20.808Z,62.90
2023-01-17T17:35:42.265Z,63.14
2023-01-17T17:41:09.106Z,63.63
2023-01-17T17:46:21.090Z,64.16
2023-01-17T17:51:34.169Z,64.59
2023-01-17T17:56:47.675Z,65.10
2023-01-17T18:02:06.213Z,65.54
2023-01-17T18:07:19.681Z,65.93
2023-01-17T18:12:26.919Z,66.25
2023-01-17T18:17:34.321Z,66.52
2023-01-17T18:22:46.507Z,66.83
2023-01-17T18:28:00.310Z,67.25
2023-01-17T18:38:48.248Z,68.15
2023-01-17T18:43:57.520Z,68.41
2023-01-17T18:49:06.258Z,68.53
2023-01-17T18:54:34.903Z,68.65
2023-01-17T18:59:43.256Z,69.16
2023-01-17T19:04:50.208Z,69.42
2023-01-17T19:09:57.148Z,69.55
2023-01-17T19:15:08.411Z,69.80
2023-01-17T19:20:17.400Z,70.03
2023-01-17T19:25:30.803Z,70.73
2023-01-17T19:30:40.981Z,70.55
2023-01-17T19:35:48.289Z,70.70
2023-01-17T19:40:55.358Z,70.76
2023-01-17T19:46:04.895Z,71.24
2023-01-17T19:51:17.930Z,71.08
2023-01-17T19:56:27.794Z,71.23
2023-01-17T20:01:39.997Z,71.61
2023-01-17T20:06:49.154Z,71.96
2023-01-17T20:12:04.508Z,71.82
2023-01-17T20:17:18.637Z,71.88
2023-01-17T20:22:30.379Z,72.61
2023-01-17T20:27:46.887Z,72.36
2023-01-17T20:32:59.937Z,72.45
2023-01-17T20:38:12.149Z,72.55
2023-01-17T20:43:27.129Z,72.80
2023-01-17T20:48:56.338Z,72.92
2023-01-17T20:54:08.465Z,73.05
2023-01-17T20:59:26.693Z,73.18
2023-01-17T21:04:40.586Z,73.47
2023-01-17T21:09:51.914Z,73.70
2023-01-17T21:15:04.894Z,73.89
2023-01-17T21:20:16.613Z,74.03
2023-01-17T21:25:23.402Z,74.24
2023-01-17T21:30:30.351Z,74.63
2023-01-17T21:35:37.353Z,74.86
2023-01-17T21:40:45.259Z,75.23
2023-01-17T21:45:53.579Z,75.23
2023-01-17T21:51:06.132Z,75.19
2023-01-17T21:56:33.209Z,75.16
2023-01-17T22:01:40.393Z,75.26
2023-01-17T22:06:47.471Z,75.32
2023-01-17T22:11:54.522Z,75.55
2023-01-17T22:17:01.550Z,75.57
2023-01-17T22:22:08.577Z,75.56
2023-01-17T22:27:15.429Z,75.67
2023-01-17T22:32:22.521Z,75.83
2023-01-17T22:37:29.459Z,75.99
2023-01-17T22:42:36.857Z,76.08
2023-01-17T22:47:43.742Z,76.35
2023-01-17T22:52:50.711Z,76.56
2023-01-17T22:57:57.554Z,77.00
2023-01-17T23:03:06.378Z,76.96
2023-01-17T23:08:13.353Z,77.11
2023-01-17T23:13:20.301Z,77.06
2023-01-17T23:18:44.508Z,77.13
2023-01-17T23:23:51.597Z,77.21
2023-01-17T23:29:00.303Z,77.08
2023-01-17T23:34:07.489Z,77.36
2023-01-17T23:39:14.667Z,77.65
2023-01-17T23:44:21.609Z,78.49
2023-01-17T23:49:29.695Z,78.58
2023-01-17T23:54:38.694Z,78.67
2023-01-17T23:59:45.612Z,78.70
